Aviation Digital Data Service (ADDS)

Output produced by METARs form (1330 UTC 26 May 2018)
found at http://www.aviationweather.gov/adds/metars/
 
LFLB 261300Z AUTO VRB05KT 9999 ///CB 26/16 Q1018 NOSIG
TAF AMD LFLB 261232Z 2612/2712 34004KT CAVOK 
     TEMPO 2612/2615 FEW050CB 
     PROB40 
     TEMPO 2623/2706 FEW060CB
       
LFBZ 261300Z AUTO 11007KT 080V150 CAVOK 21/16 Q1012 TEMPO 16020G40KT 1500 TSRAGR BKN010 BKN040CB
TAF LFBZ 261100Z 2612/2712 VRB03KT 9999 BKN020 SCT070TCU 
     TEMPO 2612/2706 16010KT 4000 SHRA FEW050CB BKN070TCU 
     PROB40 
     TEMPO 2612/2621 16020G40KT 1500 TSRAGR BKN010 BKN040CB 
     BECMG 2704/2706 30007KT 
     PROB30 
     TEMPO 2706/2712 BKN010
       
LFRT 261300Z AUTO 07006KT 040V100 0800 0750 FG OVC002 14/13 Q1014
LFRM 261300Z AUTO 13008KT 090V180 CAVOK 26/15 Q1012 TEMPO VRB18G30KT 3000 TSRA BKN040CB
TAF LFRM 261100Z 2612/2712 12006KT CAVOK 
     TEMPO 2612/2624 VRB18G30KT 3000 TSRA BKN040CB 
     PROB40 
     TEMPO 2614/2620 TSRAGR 
     TEMPO 2700/2709 4000 -SHRA SCT030CB
       
LFLW 261300Z AUTO 13017KT 090V150 9999 ///CB 23/10 Q1016 BECMG 15017G27KT NSC
LFLC 261300Z AUTO 18015G25KT CAVOK 29/13 Q1014 NOSIG
TAF LFLC 260800Z 2609/2709 18010KT CAVOK 
     PROB40 
     TEMPO 2611/2615 18015G25KT
       
LFOA 261300Z AUTO 11012KT 9999 // NCD 25/12 Q1014
TAF AMD LFOA 260936Z 2609/2709 11007KT CAVOK 
     TEMPO 2609/2610 4000 SHRA BKN045TCU 
     PROB40 
     TEMPO 2612/2621 4000 SHRA BKN050TCU 
     PROB30 
     TEMPO 2612/2621 11015G25KT 3000 TSRA BKN050CB 
     PROB30 
     TEMPO 2708/2709 3000 SHRA BKN050TCU
       
LFSB 261300Z 27007KT 9999 FEW063 FEW066TCU BKN260 27/14 Q1019 NOSIG
TAF LFSB 261100Z 2612/2712 01005KT CAVOK 
     PROB40 
     TEMPO 2612/2622 FEW060CB 
     PROB30 
     TEMPO 2613/2618 36010G20KT TS SCT060CB 
     TEMPO 2708/2712 FEW070CB
       
LFQB 261300Z AUTO 10010KT 9999 ////// 26/17 Q1016
LFBL 261300Z AUTO 17012KT 140V200 CAVOK 26/12 Q1013 TEMPO 14015G25KT
TAF LFBL 261100Z 2612/2712 14010KT CAVOK 
     PROB30 
     TEMPO 2612/2615 14015G25KT 
     PROB40 
     TEMPO 2615/2617 4000 TSRA BKN030 BKN050CB 
     PROB30 
     TEMPO 2617/2624 SCT060TCU
       
LFBI 261300Z AUTO 17012KT 120V190 CAVOK 27/14 Q1012 TEMPO VRB30G40KT 1200 TSRAGR BKN004 OVC025CB
TAF LFBI 261100Z 2612/2712 15008KT CAVOK 
     TEMPO 2612/2624 4500 -SHRA FEW060CB BKN070TCU 
     PROB40 
     TEMPO 2614/2618 VRB20G30KT 3000 TSRA BKN010 BKN040CB 
     PROB30 
     TEMPO 2614/2617 VRB30G40KT 1200 TSRAGR BKN004 OVC025CB 
     BECMG 2616/2618 VRB03KT 
     PROB40 
     TEMPO 2700/2712 4500 -SHRA SCT015 OVC050TCU 
     PROB30 
     TEMPO 2621/2706 3000 BR 
     BECMG 2710/2712 27008KT
       
LFBO 261300Z AUTO 12024G37KT 090V150 CAVOK 26/12 Q1012 NOSIG
TAF LFBO 261100Z 2612/2718 14015G25KT CAVOK 
     TEMPO 2612/2618 12020G37KT 
     BECMG 2620/2622 16008KT 
     TEMPO 2622/2704 BKN008 
     TEMPO 2714/2718 14015G27KT
       
LFMH 261300Z AUTO 15009KT 110V180 CAVOK 28/13 Q1016 NOSIG
TAF LFMH 260800Z 2609/2709 14005KT CAVOK 
     PROB30 
     TEMPO 2611/2616 15010G20KT
       
LFAQ 261300Z AUTO 13012KT 8000 NSC 27/20 Q1016 NOSIG
LFOJ 261300Z AUTO 12014KT CAVOK 28/13 Q1014
TAF LFOJ 252000Z 2521/2621 02008KT 8000 OVC007 
     TEMPO 2521/2601 -SHRA SCT030TCU 
     PROB40 
     TEMPO 2521/2524 4000 -TSRA BKN050CB 
     TEMPO 2602/2607 5000 BR BKN005
       
LFBU 261300Z AUTO 18010KT 140V220 9999 ///CB 27/13 Q1012 TEMPO VRB15G25KT 1200 TSRAGR BKN003 OVC040CB
TAF LFBU 261100Z 2612/2712 18008KT CAVOK 
     TEMPO 2612/2624 24010KT -SHRA FEW060CB BKN070TCU 
     PROB40 
     TEMPO 2613/2616 VRB15G25KT 2500 TSRA BKN010 BKN040CB 
     PROB30 
     TEMPO 2613/2615 1200 TSRAGR BKN003 OVC040CB 
     BECMG 2616/2618 VRB03KT 
     PROB30 
     TEMPO 2700/2712 -SHRA BKN070TCU
       
LFLY 261300Z AUTO 13004KT 090V180 CAVOK 28/16 Q1016 NOSIG
TAF LFLY 261100Z 2612/2712 VRB03KT CAVOK 
     PROB40 
     TEMPO 2700/2708 FEW060CB BKN140
       
LFKJ 261300Z AUTO 19011KT CAVOK 26/17 Q1017 NOSIG
TAF LFKJ 260800Z 2609/2709 24010KT CAVOK 
     TEMPO 2621/2706 04004KT
       
LFMO 261300Z AUTO VRB01KT CAVOK 27/17 Q1016 TEMPO 21015KT
TAF LFMO 260800Z 2609/2709 01005KT 9999 FEW080TCU BKN120 
     TEMPO 2609/2610 -SHRA 
     BECMG 2610/2612 NSC 
     TEMPO 2613/2619 21015KT
       
LFRK 261300Z AUTO 03008KT 7000 FEW035 SCT041 BKN048 23/19 Q1013 TEMPO SHRA SCT030TCU
LFMV 261300Z AUTO 20006KT 170V250 CAVOK 27/16 Q1016 NOSIG
TAF LFMV 260800Z 2609/2709 08010KT CAVOK 
     BECMG 2609/2611 VRB10KT 
     BECMG 2612/2614 20015KT 
     BECMG 2618/2620 VRB03KT 
     PROB30 
     TEMPO 2705/2707 27010G20KT
       
LFBC 261300Z AUTO 09010KT 9999 VCTS ///CB 17/16 Q1012
LFLU 261300Z AUTO VRB01KT CAVOK 25/16 Q1015
LFPG 261300Z 14014KT CAVOK 27/17 Q1016 NOSIG
TAF LFPG 261100Z 2612/2718 12010KT CAVOK 
     TEMPO 2615/2618 FEW060CB 
     PROB30 
     TEMPO 2619/2621 VRB15G25KT 3000 TSRA SCT050CB 
     PROB30 
     TEMPO 2712/2714 3000 TSRA SCT060CB 
     PROB40 
     TEMPO 2715/2718 2000 TSRA BKN030CB TX30/2615Z TN18/2704Z
       
LFBG 261300Z AUTO 21005G16KT 190V310 9999 TS BKN047/// OVC058/// ///CB 24/17 Q1012
TAF LFBG 251400Z 2515/2615 05005KT CAVOK 
     TEMPO 2515/2516 26012KT 4000 SHRA BKN040 BKN060TCU 
     PROB40 
     TEMPO 2515/2516 27018G30KT 3000 TSRA BKN040 BKN050CB 
     TEMPO 2521/2524 4000 SHRA BKN050TCU
       
LFOC 261300Z AUTO 14014KT 8000 NSC 28/12 Q1014
LFPT 261300Z AUTO 15009KT CAVOK 28/15 Q1015
LFMN 261300Z 10003KT 9999 FEW033 FEW050TCU SCT260 24/15 Q1018 NOSIG
TAF LFMN 260800Z 2609/2715 16010KT CAVOK 
     BECMG 2619/2621 34010KT 
     BECMG 2707/2709 09010KT
       
LFLX 261300Z AUTO 11008KT 060V140 CAVOK 26/15 Q1013 TEMPO 16018G30KT 2500 -TSRA BKN040CB
TAF LFLX 261100Z 2612/2718 12007KT CAVOK 
     TEMPO 2614/2620 4000 SHRA SCT050CB SCT100 
     PROB40 
     TEMPO 2614/2617 20018G30KT 2000 -TSRAGR BKN040CB 
     BECMG 2707/2710 20006KT 
     TEMPO 2614/2618 4000 SHRA SCT050CB SCT100 
     PROB40 
     TEMPO 2614/2617 16018G30KT 2500 -TSRA BKN040CB
       
LFOV 261300Z AUTO 14012KT 110V170 9999 FEW033 SCT041 24/16 Q1012
LFST 261300Z AUTO VRB03KT 9999 ///CB 28/16 Q1018 NOSIG
TAF LFST 261100Z 2612/2712 33004KT CAVOK 
     TEMPO 2612/2617 FEW050CB
       
LFSN 261300Z AUTO 14006KT CAVOK 28/17 Q1019
LFOE 261300Z AUTO 12012KT 9999 FEW042 BKN170 BKN200 26/14 Q1014 TEMPO VRB15G25KT 3000 SHRA BKN030CB
TAF LFOE 260800Z 2609/2709 10010KT CAVOK 
     TEMPO 2613/2704 VRB15G25KT 3000 SHRA BKN030CB 
     PROB40 
     TEMPO 2618/2703 VRB20G30KT 2000 TSRA
       
LFQG 261300Z AUTO 11012KT 070V150 CAVOK 26/15 Q1015
LFTW 261300Z AUTO 18009KT CAVOK 26/17 Q1016 NOSIG
TAF LFTW 260800Z 2609/2709 06010KT 9999 FEW060TCU BKN110 
     BECMG 2610/2613 18012KT CAVOK 
     BECMG 2619/2621 02004KT
       
LFRB 261300Z AUTO 04012KT 3900 BR OVC009/// ///TCU 15/14 Q1014 TEMPO 8000 NSW BKN010CB
TAF AMD LFRB 261307Z 2613/2718 06008KT 8000 BKN010 
     TEMPO 2613/2624 3000 SHRA BKN010TCU 
     PROB30 
     TEMPO 2614/2618 4000 TSRA BKN010CB 
     BECMG 2622/2624 2000 BR BKN006 
     TEMPO 2700/2706 0400 FG VV/// 
     BECMG 2703/2705 16010KT 
     BECMG 2707/2710 9999 NSW SCT008 SCT020
       
LFGA 261300Z AUTO 28010KT 240V320 9999 ///CB 25/16 Q1019
LFBH 261300Z AUTO 22008KT 180V270 9999 ///TCU 22/16 Q1012 TEMPO 24020G30KT 1200 TSRAGR BKN008 OVC025CB
TAF LFBH 261100Z 2612/2712 24010KT 9999 SCT050TCU 
     TEMPO 2612/2618 4500 -SHRA FEW050CB BKN060TCU 
     PROB40 
     TEMPO 2612/2615 24020G30KT 2500 TSRA BKN010 OVC030CB 
     PROB30 
     TEMPO 2612/2615 1200 TSRAGR BKN008 OVC025CB 
     BECMG 2615/2617 24008KT CAVOK 
     BECMG 2621/2623 BKN010 
     PROB40 2700/2706 3000 BR BKN005 
     BECMG 2707/2709 SCT015
       
LFBA 261300Z AUTO 27017KT CAVOK 21/12 Q1013 TEMPO 16015G35KT 4000 TSRA SCT015 BKN030CB
LFRJ 261300Z AUTO 06008KT 020V080 1900 -RA BR OVC004/// ///CB 14/13 Q1014
LFRH 261300Z AUTO 04012KT 4600 BR FEW007/// OVC092/// ///CB 17/16 Q1012 TEMPO TSRA BKN010 BKN030CB
TAF LFRH 261100Z 2612/2712 03010KT 9999 BKN020 
     TEMPO 2612/2621 4000 SHRA BKN040CB 
     PROB40 
     TEMPO 2612/2618 VRB10G20KT 3000 TSRA BKN010 BKN030CB 
     BECMG 2620/2622 15010KT OVC010 
     TEMPO 2622/2706 4000 BR BKN005 
     TEMPO 2705/2712 5000 SHRA
       
LFRO 261300Z AUTO 02008KT 360V080 1400 1300 R29/1800U BR VCTS OVC002/// ///CB 13/12 Q1014 TEMPO BKN010TCU BECMG 4000 BR
TAF AMD LFRO 261313Z 2613/2712 04006KT 2000 BR BKN003 
     TEMPO 2613/2622 SHRA BKN003 SCT010CB 
     BECMG 2622/2624 2000 BR BKN005 
     TEMPO 2700/2706 0400 FG VV/// 
     BECMG 2703/2706 14010KT 
     BECMG 2706/2708 8000 NSW BKN010 
     BECMG 2710/2712 BKN016
       
LFPB 261300Z AUTO 11013KT 080V140 9999 FEW039 SCT084 BKN150 27/15 Q1015 NOSIG
TAF LFPB 261100Z 2612/2712 12010KT CAVOK 
     TEMPO 2615/2618 FEW060CB 
     PROB30 
     TEMPO 2619/2621 VRB15G25KT 3000 TSRA SCT050CB 
     PROB30 
     TEMPO 2711/2712 FEW060CB
       
LFMC 261300Z AUTO 12010KT 9999 ////// 28/12 Q1017
LFTH 261300Z AUTO 11011KT 080V190 CAVOK 23/18 Q1017 NOSIG
TAF LFTH 260800Z 2609/2709 04013KT CAVOK 
     BECMG 2610/2612 10017G27KT 
     BECMG 2612/2614 12010KT 
     BECMG 2618/2620 VRB04KT 
     TEMPO 2700/2706 02006KT 
     BECMG 2706/2708 09015G25KT 
     PROB40 
     TEMPO 2707/2709 09025G40KT BKN110CB
       
LFAT 261300Z AUTO 09014KT 9000 NSC 27/18 Q1016 NOSIG
LFMI 261300Z AUTO 14010KT 110V170 CAVOK 27/16 Q1015 TEMPO FEW110CB
TAF LFMI 260800Z 2609/2709 06015KT CAVOK 
     BECMG 2610/2612 18015KT 
     TEMPO 2612/2615 FEW110CB 
     BECMG 2618/2620 VRB03KT 
     TEMPO 2623/2708 05008KT 
     BECMG 2708/2709 20010KT FEW110CB
       
LFRI 261300Z AUTO 17011KT 140V210 9999 FEW031 24/15 Q1012 TEMPO VRB15G30KT 3000 TSRA BKN025CB
TAF LFRI 261100Z 2612/2712 14006KT 9999 SCT020 BKN050 
     TEMPO 2612/2621 VRB15G30KT 3000 TSRA BKN025CB 
     PROB40 
     TEMPO 2614/2619 TSRAGR 
     TEMPO 2702/2709 3000 BR BKN003 
     PROB40 
     TEMPO 2703/2706 0600 FG VV///
       
LFQQ 261300Z AUTO 08012KT 9000 NSC 28/16 Q1017 NOSIG
TAF LFQQ 261100Z 2612/2718 06007KT 6000 NSC 
     TEMPO 2615/2718 3000 SHRA BKN040TCU 
     PROB30 
     TEMPO 2617/2718 1200 TSRAGR BKN070CB
       
LFSD 261300Z AUTO 12006KT 090V150 CAVOK 26/15 Q1018
LFBT 261300Z AUTO 30004KT 260V360 9999 BKN022/// BKN042/// ///TCU 17/13 Q1014 TEMPO 36015G30KT 2000 TSRA BKN010 BKN030CB
TAF LFBT 261100Z 2612/2712 VRB03KT 9999 BKN025 
     TEMPO 2612/2618 4000 SHRA SCT020TCU BKN070 
     PROB40 
     TEMPO 2612/2618 36015G30KT 2000 TSRA BKN010 BKN030CB 
     PROB40 
     TEMPO 2615/2618 36020G40KT 
     PROB30 
     TEMPO 2700/2712 BKN010
       
LFMD 261300Z AUTO 17008KT CAVOK 26/14 Q1018 NOSIG
TAF LFMD 260800Z 2609/2709 12010KT CAVOK 
     BECMG 2621/2623 06008KT
       
LFJR 261300Z AUTO 13009KT 9999 SCT041 SCT049 BKN058 26/17 Q1012 TEMPO VRB18G30KT 2000 TSRA BKN030CB
LFCR 261300Z AUTO 13019KT 9999 ///CB 24/09 Q1015 TEMPO 13020G35KT BECMG NSC
TAF AMD LFCR 261313Z 2613/2712 13015G25KT CAVOK 
     TEMPO 2613/2620 13020G35KT FEW060CB 
     BECMG 2702/2704 13012KT 
     PROB30 
     TEMPO 2704/2707 FEW080TCU 
     BECMG 2708/2710 15020G30KT
       
LFRC 261300Z AUTO 08018KT 4900 BR NSC 18/14 Q1014 TEMPO SCT030TCU BECMG 9999 NSW
LFCK 261300Z AUTO 11025G36KT CAVOK 25/07 Q1015 NOSIG
LFMT 261300Z AUTO 14004KT 110V170 CAVOK 25/16 Q1016 NOSIG
TAF LFMT 260800Z 2609/2709 06006KT CAVOK 
     BECMG 2612/2614 15010KT 
     BECMG 2619/2621 02005KT
       
LFBD 261300Z AUTO 11003KT 020V180 9999 -TSRA FEW008/// SCT027/// BKN049/// ///CB 16/15 Q1013 TEMPO 24015G30KT 2000 TSRA BKN010 BKN040CB
TAF LFBD 261100Z 2612/2718 12005KT 9999 SCT020 OVC070 
     TEMPO 2612/2706 -SHRA FEW040CB BKN050TCU 
     PROB40 
     TEMPO 2612/2621 24015G30KT 2000 TSRA BKN010 BKN040CB 
     PROB30 
     TEMPO 2612/2614 24020G45KT 1200 TSRAGR BKN005 OVC030CB 
     BECMG 2620/2622 VRB03KT 
     PROB40 2703/2708 3000 BR BKN008 
     PROB30 
     TEMPO 2703/2707 1200 BCFG 
     BECMG 2708/2710 30010KT BKN030 OVC080 TX23/2618Z TN14/2704Z
       
LFJL 261300Z AUTO 22004KT 150V280 CAVOK 26/17 Q1019 TEMPO -TSRA FEW050CB
TAF LFJL 261100Z 2612/2712 16006KT CAVOK 
     TEMPO 2612/2620 FEW050CB 
     PROB30 
     TEMPO 2613/2617 -TSRA
       
LFRV 261300Z AUTO 02007KT 4600 BR BKN003 BKN110 BKN140 16/16 Q1012
LFLP 261300Z AUTO 11007KT CAVOK 26/14 Q1018 NOSIG
TAF LFLP 260800Z 2609/2709 22004KT CAVOK 
     BECMG 2613/2615 02008KT 
     TEMPO 2609/2615 FEW050
       
LFSG 261300Z AUTO 16006KT 120V190 CAVOK 25/16 Q1019
LFBM 261300Z AUTO 09005KT 060V140 CAVOK 16/15 Q1013 TEMPO VRB15G25KT 3000 TSRA BKN025CB
TAF LFBM 260800Z 2609/2709 VRB03KT 9999 BKN010 OVC045 
     BECMG 2610/2612 BKN025 BKN090 
     TEMPO 2609/2622 4000 SHRA BKN025TCU 
     PROB40 
     TEMPO 2614/2621 VRB15G25KT 3000 TSRA BKN025CB 
     BECMG 2700/2702 BKN005 BKN050 
     BECMG 2707/2709 BKN010 BKN050
       
LFRZ 261300Z AUTO 05006KT 010V100 9999 FEW013 21/17 Q1012 TEMPO VRB15G25KT 3000 TSRA BKN008 BKN030CB
TAF LFRZ 261100Z 2612/2712 02008KT 9999 BKN018 
     TEMPO 2612/2616 VRB15G25KT 3000 TSRA BKN008 BKN030CB 
     BECMG 2616/2618 BKN008 BKN050 
     TEMPO 2700/2708 2000 BR BKN003 
     BECMG 2708/2710 20010KT SCT020
       
LFRS 261300Z AUTO VRB03KT 9999 BKN030 BKN037 BKN050 24/18 Q1011 TEMPO VRB15G30KT 3000 TSRA BKN025CB
TAF LFRS 261100Z 2612/2718 05006KT 9999 SCT020 BKN050 
     TEMPO 2612/2621 VRB15G30KT 3000 TSRA BKN025CB 
     PROB40 
     TEMPO 2614/2618 TSRAGR 
     TEMPO 2700/2710 3000 BR BKN003 
     PROB30 
     TEMPO 2703/2706 0600 FG VV///
       
LFSO 261300Z AUTO 15005KT 100V180 CAVOK 26/14 Q1019
LFOH 261300Z AUTO 09016KT 9999 BKN041 27/16 Q1013 NOSIG
TAF LFOH 261100Z 2612/2712 07007KT 6000 NSC 
     TEMPO 2615/2624 3000 SHRA BKN030CB 
     PROB30 2615/2624 VRB20G35KT 1200 TSRAGR BKN040CB
       
LFPO 261300Z 13010KT CAVOK 27/15 Q1015 NOSIG
TAF LFPO 261100Z 2612/2718 10008KT CAVOK 
     TEMPO 2612/2624 12015G25KT -SHRA SCT060TCU 
     PROB40 
     TEMPO 2618/2621 20017G35KT 2500 -TSRA SCT009 BKN050CB 
     BECMG 2710/2712 SCT030TCU 
     TEMPO 2712/2718 15015G27KT SCT060TCU 
     PROB30 
     TEMPO 2711/2714 4000 -TSRA BKN040CB 
     PROB40 
     TEMPO 2714/2718 2500 -TSRAGR SCT009 BKN050CB
       
LFBP 261300Z AUTO VRB03KT CAVOK 18/12 Q1013 TEMPO 32015G30KT 2000 TSRA SCT010 BKN030CB
TAF LFBP 261100Z 2612/2712 30006KT 9999 BKN030 
     TEMPO 2612/2624 4000 SHRA BKN040TCU 
     PROB40 
     TEMPO 2612/2621 32015G30KT 2000 TSRA SCT010 BKN030CB 
     PROB40 
     TEMPO 2615/2621 32020G40KT 1000 TSRAGR BKN010 BKN030CB 
     BECMG 2700/2703 BKN010
       
LFRD 261300Z AUTO 01006KT 320V060 5000 BR FEW017 BKN056 21/16 Q1012 TEMPO VRB15G38KT TSRA BKN020CB
TAF LFRD 261100Z 2612/2712 02010KT 2000 BR BKN005 
     BECMG 2612/2614 VRB05KT 9999 NSW BKN020 
     TEMPO 2612/2621 SHRA SCT020TCU 
     PROB40 
     TEMPO 2615/2621 VRB15G38KT 4000 TSRA BKN020CB 
     BECMG 2618/2620 17010KT 
     BECMG 2623/2701 BKN010 
     BECMG 2707/2709 BKN020
       
LFRU 261300Z AUTO 05006KT 350V090 1600 TSRA BR OVC004/// ///CB 14/13 Q1014
LFRQ 261300Z AUTO 03005KT 360V060 7000 RA FEW032/// BKN060/// BKN084/// ///TCU 17/15 Q1012 TEMPO 3000 TSRA BKN015CB
TAF LFRQ 261100Z 2612/2712 06008KT 9999 SCT020 
     TEMPO 2612/2622 SHRA BKN020TCU 
     PROB40 
     TEMPO 2612/2618 3000 TSRA BKN015CB 
     BECMG 2622/2624 3000 BR 
     BECMG 2700/2703 14010KT 
     TEMPO 2700/2705 0500 FG BKN001 
     BECMG 2706/2708 3000 BR BKN008
       
LFKB 261300Z AUTO 12004KT 050V170 CAVOK 25/19 Q1018 NOSIG
TAF LFKB 260800Z 2609/2709 VRB05KT CAVOK 
     PROB30 
     TEMPO 2700/2706 BKN014 TX26/2613Z TN16/2704Z
       
LFRL 261300Z AUTO 02008KT 4600 -RA BR FEW013/// BKN098/// OVC120/// ///TCU 16/14 Q1013
LFML 261300Z AUTO 13006KT 100V160 9999 FEW009 27/15 Q1016 TEMPO FEW100CB
TAF LFML 260800Z 2609/2715 VRB04KT CAVOK 
     PROB40 
     TEMPO 2609/2611 08015G30KT 
     BECMG 2611/2612 18015KT 
     PROB40 
     TEMPO 2612/2615 20012G22KT FEW100CB 
     BECMG 2618/2620 VRB03KT 
     BECMG 2700/2702 10010KT 
     BECMG 2707/2709 18010KT 
     TEMPO 2710/2712 VRB15KT 
     TEMPO 2712/2714 18015G30KT 
     PROB40 
     TEMPO 2710/2715 BKN110CB 
     BECMG 2714/2715 VRB03KT TX29/2611Z TN19/2701Z
       
LFQA 261300Z AUTO 14009KT 110V180 CAVOK 28/17 Q1017
LFMP 261300Z AUTO 13018KT CAVOK 25/10 Q1015 BECMG 12012G22KT
TAF LFMP 260800Z 2609/2709 13008KT 9999 FEW008 SCT100 
     BECMG 2611/2613 12012G22KT CAVOK 
     BECMG 2620/2622 06005KT BKN008 
     TEMPO 2623/2708 3000 BR OVC005
       
LFSI 261300Z AUTO 18011KT CAVOK 27/14 Q1017
TAF LFSI 260800Z 2609/2709 10010KT CAVOK
       
LFBE 261300Z AUTO 18009KT 140V210 9999 ///CB 24/15 Q1013 TEMPO VRB20G30KT 1200 TSRAGR BKN008 OVC025CB
TAF LFBE 261100Z 2612/2712 14005KT 9999 SCT050 OVC080 
     TEMPO 2613/2618 34008KT -SHRA FEW060CB BKN070TCU 
     PROB40 
     TEMPO 2613/2618 VRB20G30KT 3000 TSRA BKN010 OVC040CB 
     PROB30 
     TEMPO 2613/2615 1200 TSRAGR BKN008 OVC025CB 
     BECMG 2618/2620 VRB03KT 
     PROB30 
     TEMPO 2618/2706 4500 -SHRA BKN050TCU 
     PROB30 
     TEMPO 2706/2709 BKN010 
     BECMG 2709/2711 SCT030
       
LFKC 261300Z AUTO 33006KT 290V010 CAVOK 26/14 Q1017 NOSIG
TAF LFKC 260800Z 2609/2709 36008KT CAVOK 
     BECMG 2617/2618 20010KT 
     BECMG 2706/2708 36008KT TX27/2613Z TN17/2704Z
       
LFLL 261300Z 12008KT CAVOK 28/15 Q1016 NOSIG
TAF LFLL 261100Z 2612/2718 10006KT CAVOK 
     PROB30 
     TEMPO 2700/2708 VRB02KT FEW070CB BKN090 
     BECMG 2708/2711 36006KT 
     BECMG 2713/2715 SCT060CB 
     TEMPO 2715/2718 VRB20G40KT 2000 TSRA BKN050CB
       
LFLS 261300Z AUTO 08010KT CAVOK 24/15 Q1017 NOSIG
TAF LFLS 260800Z 2609/2709 16004KT 9999 SCT090 
     PROB30 
     TEMPO 2609/2613 SHRA FEW060CB 
     BECMG 2610/2612 09008KT CAVOK
       
LFSX 261300Z AUTO VRB03KT 9999 NCD 27/14 Q1019 TEMPO 3000 TSRA BKN020CB
TAF AMD LFSX 260830Z 2609/2709 11007KT CAVOK 
     PROB40 
     TEMPO 2609/2612 4000 SHRA SCT050TCU 
     PROB30 
     TEMPO 2609/2612 3000 TSRA BKN020CB 
     BECMG 2612/2614 08010KT 8000 SHRA SCT050TCU 
     TEMPO 2614/2621 VRB10G20KT 3000 TSRA BKN020CB 
     BECMG 2621/2622 CAVOK 
     BECMG 2701/2703 VRB07KT 
     TEMPO 2703/2709 4000 SHRA SCT040TCU 
     TEMPO 2703/2709 VRB10G20KT 3000 TSRA BKN030CB
       
LFLN 261300Z AUTO 10010KT CAVOK 27/15 Q1015 NOSIG
LFMY 261300Z AUTO 15006KT 100V200 CAVOK 28/17 Q1016 NOSIG
TAF LFMY 261136Z 2609/2709 22008KT 9999 NSC 
     BECMG 2618/2620 VRB03KT 
     BECMG 2706/2708 10015KT
       
LFMK 261300Z AUTO 09021KT 9999 FEW052 25/13 Q1014 TEMPO 10018G28KT
TAF LFMK 260800Z 2609/2709 09018KT 9999 SCT020 
     TEMPO 2609/2616 10018G28KT 
     TEMPO 2623/2706 BKN011 
     BECMG 2700/2702 10006KT 
     BECMG 2707/2709 09016KT
       
LFKS 261300Z AUTO 16005KT 120V190 CAVOK 25/18 Q1018
TAF LFKS 261030Z 2611/2709 13005KT CAVOK
       
LFAQ 261300Z AUTO 13012KT 8000 NSC 27/20 Q1016 NOSIG
LFAT 261300Z AUTO 09014KT 9000 NSC 27/18 Q1016 NOSIG
LFBA 261300Z AUTO 27017KT CAVOK 21/12 Q1013 TEMPO 16015G35KT 4000 TSRA SCT015 BKN030CB
LFBC 261300Z AUTO 09010KT 9999 VCTS ///CB 17/16 Q1012
LFBD 261300Z AUTO 11003KT 020V180 9999 -TSRA FEW008/// SCT027/// BKN049/// ///CB 16/15 Q1013 TEMPO 24015G30KT 2000 TSRA BKN010 BKN040CB
TAF LFBD 261100Z 2612/2718 12005KT 9999 SCT020 OVC070 
     TEMPO 2612/2706 -SHRA FEW040CB BKN050TCU 
     PROB40 
     TEMPO 2612/2621 24015G30KT 2000 TSRA BKN010 BKN040CB 
     PROB30 
     TEMPO 2612/2614 24020G45KT 1200 TSRAGR BKN005 OVC030CB 
     BECMG 2620/2622 VRB03KT 
     PROB40 2703/2708 3000 BR BKN008 
     PROB30 
     TEMPO 2703/2707 1200 BCFG 
     BECMG 2708/2710 30010KT BKN030 OVC080 TX23/2618Z TN14/2704Z
       
LFBE 261300Z AUTO 18009KT 140V210 9999 ///CB 24/15 Q1013 TEMPO VRB20G30KT 1200 TSRAGR BKN008 OVC025CB
TAF LFBE 261100Z 2612/2712 14005KT 9999 SCT050 OVC080 
     TEMPO 2613/2618 34008KT -SHRA FEW060CB BKN070TCU 
     PROB40 
     TEMPO 2613/2618 VRB20G30KT 3000 TSRA BKN010 OVC040CB 
     PROB30 
     TEMPO 2613/2615 1200 TSRAGR BKN008 OVC025CB 
     BECMG 2618/2620 VRB03KT 
     PROB30 
     TEMPO 2618/2706 4500 -SHRA BKN050TCU 
     PROB30 
     TEMPO 2706/2709 BKN010 
     BECMG 2709/2711 SCT030
       
LFBG 261300Z AUTO 21005G16KT 190V310 9999 TS BKN047/// OVC058/// ///CB 24/17 Q1012
TAF LFBG 251400Z 2515/2615 05005KT CAVOK 
     TEMPO 2515/2516 26012KT 4000 SHRA BKN040 BKN060TCU 
     PROB40 
     TEMPO 2515/2516 27018G30KT 3000 TSRA BKN040 BKN050CB 
     TEMPO 2521/2524 4000 SHRA BKN050TCU
       
LFBH 261300Z AUTO 22008KT 180V270 9999 ///TCU 22/16 Q1012 TEMPO 24020G30KT 1200 TSRAGR BKN008 OVC025CB
TAF LFBH 261100Z 2612/2712 24010KT 9999 SCT050TCU 
     TEMPO 2612/2618 4500 -SHRA FEW050CB BKN060TCU 
     PROB40 
     TEMPO 2612/2615 24020G30KT 2500 TSRA BKN010 OVC030CB 
     PROB30 
     TEMPO 2612/2615 1200 TSRAGR BKN008 OVC025CB 
     BECMG 2615/2617 24008KT CAVOK 
     BECMG 2621/2623 BKN010 
     PROB40 2700/2706 3000 BR BKN005 
     BECMG 2707/2709 SCT015
       
LFBI 261300Z AUTO 17012KT 120V190 CAVOK 27/14 Q1012 TEMPO VRB30G40KT 1200 TSRAGR BKN004 OVC025CB
TAF LFBI 261100Z 2612/2712 15008KT CAVOK 
     TEMPO 2612/2624 4500 -SHRA FEW060CB BKN070TCU 
     PROB40 
     TEMPO 2614/2618 VRB20G30KT 3000 TSRA BKN010 BKN040CB 
     PROB30 
     TEMPO 2614/2617 VRB30G40KT 1200 TSRAGR BKN004 OVC025CB 
     BECMG 2616/2618 VRB03KT 
     PROB40 
     TEMPO 2700/2712 4500 -SHRA SCT015 OVC050TCU 
     PROB30 
     TEMPO 2621/2706 3000 BR 
     BECMG 2710/2712 27008KT
       
LFBL 261300Z AUTO 17012KT 140V200 CAVOK 26/12 Q1013 TEMPO 14015G25KT
TAF LFBL 261100Z 2612/2712 14010KT CAVOK 
     PROB30 
     TEMPO 2612/2615 14015G25KT 
     PROB40 
     TEMPO 2615/2617 4000 TSRA BKN030 BKN050CB 
     PROB30 
     TEMPO 2617/2624 SCT060TCU
       
LFBM 261300Z AUTO 09005KT 060V140 CAVOK 16/15 Q1013 TEMPO VRB15G25KT 3000 TSRA BKN025CB
TAF LFBM 260800Z 2609/2709 VRB03KT 9999 BKN010 OVC045 
     BECMG 2610/2612 BKN025 BKN090 
     TEMPO 2609/2622 4000 SHRA BKN025TCU 
     PROB40 
     TEMPO 2614/2621 VRB15G25KT 3000 TSRA BKN025CB 
     BECMG 2700/2702 BKN005 BKN050 
     BECMG 2707/2709 BKN010 BKN050
       
LFBO 261300Z AUTO 12024G37KT 090V150 CAVOK 26/12 Q1012 NOSIG
TAF LFBO 261100Z 2612/2718 14015G25KT CAVOK 
     TEMPO 2612/2618 12020G37KT 
     BECMG 2620/2622 16008KT 
     TEMPO 2622/2704 BKN008 
     TEMPO 2714/2718 14015G27KT
       
LFBP 261300Z AUTO VRB03KT CAVOK 18/12 Q1013 TEMPO 32015G30KT 2000 TSRA SCT010 BKN030CB
TAF LFBP 261100Z 2612/2712 30006KT 9999 BKN030 
     TEMPO 2612/2624 4000 SHRA BKN040TCU 
     PROB40 
     TEMPO 2612/2621 32015G30KT 2000 TSRA SCT010 BKN030CB 
     PROB40 
     TEMPO 2615/2621 32020G40KT 1000 TSRAGR BKN010 BKN030CB 
     BECMG 2700/2703 BKN010
       
LFBT 261300Z AUTO 30004KT 260V360 9999 BKN022/// BKN042/// ///TCU 17/13 Q1014 TEMPO 36015G30KT 2000 TSRA BKN010 BKN030CB
TAF LFBT 261100Z 2612/2712 VRB03KT 9999 BKN025 
     TEMPO 2612/2618 4000 SHRA SCT020TCU BKN070 
     PROB40 
     TEMPO 2612/2618 36015G30KT 2000 TSRA BKN010 BKN030CB 
     PROB40 
     TEMPO 2615/2618 36020G40KT 
     PROB30 
     TEMPO 2700/2712 BKN010
       
LFBU 261300Z AUTO 18010KT 140V220 9999 ///CB 27/13 Q1012 TEMPO VRB15G25KT 1200 TSRAGR BKN003 OVC040CB
TAF LFBU 261100Z 2612/2712 18008KT CAVOK 
     TEMPO 2612/2624 24010KT -SHRA FEW060CB BKN070TCU 
     PROB40 
     TEMPO 2613/2616 VRB15G25KT 2500 TSRA BKN010 BKN040CB 
     PROB30 
     TEMPO 2613/2615 1200 TSRAGR BKN003 OVC040CB 
     BECMG 2616/2618 VRB03KT 
     PROB30 
     TEMPO 2700/2712 -SHRA BKN070TCU
       
LFBY 261300Z AUTO VRB01KT //// // ////// 19/15 Q1012
LFBZ 261300Z AUTO 11007KT 080V150 CAVOK 21/16 Q1012 TEMPO 16020G40KT 1500 TSRAGR BKN010 BKN040CB
TAF LFBZ 261100Z 2612/2712 VRB03KT 9999 BKN020 SCT070TCU 
     TEMPO 2612/2706 16010KT 4000 SHRA FEW050CB BKN070TCU 
     PROB40 
     TEMPO 2612/2621 16020G40KT 1500 TSRAGR BKN010 BKN040CB 
     BECMG 2704/2706 30007KT 
     PROB30 
     TEMPO 2706/2712 BKN010
       
LFCK 261300Z AUTO 11025G36KT CAVOK 25/07 Q1015 NOSIG
LFCR 261300Z AUTO 13019KT 9999 ///CB 24/09 Q1015 TEMPO 13020G35KT BECMG NSC
TAF AMD LFCR 261313Z 2613/2712 13015G25KT CAVOK 
     TEMPO 2613/2620 13020G35KT FEW060CB 
     BECMG 2702/2704 13012KT 
     PROB30 
     TEMPO 2704/2707 FEW080TCU 
     BECMG 2708/2710 15020G30KT
       
LFGA 261300Z AUTO 28010KT 240V320 9999 ///CB 25/16 Q1019
LFGJ 261300Z AUTO 05005KT CAVOK 23/18 Q1018 TEMPO 2000 TSRA SCT060CB
LFJL 261300Z AUTO 22004KT 150V280 CAVOK 26/17 Q1019 TEMPO -TSRA FEW050CB
TAF LFJL 261100Z 2612/2712 16006KT CAVOK 
     TEMPO 2612/2620 FEW050CB 
     PROB30 
     TEMPO 2613/2617 -TSRA
       
LFJR 261300Z AUTO 13009KT 9999 SCT041 SCT049 BKN058 26/17 Q1012 TEMPO VRB18G30KT 2000 TSRA BKN030CB
LFKB 261300Z AUTO 12004KT 050V170 CAVOK 25/19 Q1018 NOSIG
TAF LFKB 260800Z 2609/2709 VRB05KT CAVOK 
     PROB30 
     TEMPO 2700/2706 BKN014 TX26/2613Z TN16/2704Z
       
LFKC 261300Z AUTO 33006KT 290V010 CAVOK 26/14 Q1017 NOSIG
TAF LFKC 260800Z 2609/2709 36008KT CAVOK 
     BECMG 2617/2618 20010KT 
     BECMG 2706/2708 36008KT TX27/2613Z TN17/2704Z
       
LFKF 261300Z AUTO 07012KT CAVOK 27/12 Q1018 NOSIG
TAF LFKF 260800Z 2609/2709 07012KT CAVOK 
     PROB30 
     TEMPO 2703/2706 BKN014
       
LFKJ 261300Z AUTO 19011KT CAVOK 26/17 Q1017 NOSIG
TAF LFKJ 260800Z 2609/2709 24010KT CAVOK 
     TEMPO 2621/2706 04004KT
       
LFKS 261300Z AUTO 16005KT 120V190 CAVOK 25/18 Q1018
TAF LFKS 261030Z 2611/2709 13005KT CAVOK
       
LFLB 261300Z AUTO VRB05KT 9999 ///CB 26/16 Q1018 NOSIG
TAF AMD LFLB 261232Z 2612/2712 34004KT CAVOK 
     TEMPO 2612/2615 FEW050CB 
     PROB40 
     TEMPO 2623/2706 FEW060CB
       
LFLC 261300Z AUTO 18015G25KT CAVOK 29/13 Q1014 NOSIG
TAF LFLC 260800Z 2609/2709 18010KT CAVOK 
     PROB40 
     TEMPO 2611/2615 18015G25KT
       
LFLL 261300Z 12008KT CAVOK 28/15 Q1016 NOSIG
TAF LFLL 261100Z 2612/2718 10006KT CAVOK 
     PROB30 
     TEMPO 2700/2708 VRB02KT FEW070CB BKN090 
     BECMG 2708/2711 36006KT 
     BECMG 2713/2715 SCT060CB 
     TEMPO 2715/2718 VRB20G40KT 2000 TSRA BKN050CB
       
LFLN 261300Z AUTO 10010KT CAVOK 27/15 Q1015 NOSIG
LFLP 261300Z AUTO 11007KT CAVOK 26/14 Q1018 NOSIG
TAF LFLP 260800Z 2609/2709 22004KT CAVOK 
     BECMG 2613/2615 02008KT 
     TEMPO 2609/2615 FEW050
       
LFLS 261300Z AUTO 08010KT CAVOK 24/15 Q1017 NOSIG
TAF LFLS 260800Z 2609/2709 16004KT 9999 SCT090 
     PROB30 
     TEMPO 2609/2613 SHRA FEW060CB 
     BECMG 2610/2612 09008KT CAVOK
       
LFLU 261300Z AUTO VRB01KT CAVOK 25/16 Q1015
LFLW 261300Z AUTO 13017KT 090V150 9999 ///CB 23/10 Q1016 BECMG 15017G27KT NSC
LFLX 261300Z AUTO 11008KT 060V140 CAVOK 26/15 Q1013 TEMPO 16018G30KT 2500 -TSRA BKN040CB
TAF LFLX 261100Z 2612/2718 12007KT CAVOK 
     TEMPO 2614/2620 4000 SHRA SCT050CB SCT100 
     PROB40 
     TEMPO 2614/2617 20018G30KT 2000 -TSRAGR BKN040CB 
     BECMG 2707/2710 20006KT 
     TEMPO 2614/2618 4000 SHRA SCT050CB SCT100 
     PROB40 
     TEMPO 2614/2617 16018G30KT 2500 -TSRA BKN040CB
       
LFLY 261300Z AUTO 13004KT 090V180 CAVOK 28/16 Q1016 NOSIG
TAF LFLY 261100Z 2612/2712 VRB03KT CAVOK 
     PROB40 
     TEMPO 2700/2708 FEW060CB BKN140
       
LFMC 261300Z AUTO 12010KT 9999 ////// 28/12 Q1017
LFMD 261300Z AUTO 17008KT CAVOK 26/14 Q1018 NOSIG
TAF LFMD 260800Z 2609/2709 12010KT CAVOK 
     BECMG 2621/2623 06008KT
       
LFMH 261300Z AUTO 15009KT 110V180 CAVOK 28/13 Q1016 NOSIG
TAF LFMH 260800Z 2609/2709 14005KT CAVOK 
     PROB30 
     TEMPO 2611/2616 15010G20KT
       
LFMI 261300Z AUTO 14010KT 110V170 CAVOK 27/16 Q1015 TEMPO FEW110CB
TAF LFMI 260800Z 2609/2709 06015KT CAVOK 
     BECMG 2610/2612 18015KT 
     TEMPO 2612/2615 FEW110CB 
     BECMG 2618/2620 VRB03KT 
     TEMPO 2623/2708 05008KT 
     BECMG 2708/2709 20010KT FEW110CB
       
LFMK 261300Z AUTO 09021KT 9999 FEW052 25/13 Q1014 TEMPO 10018G28KT
TAF LFMK 260800Z 2609/2709 09018KT 9999 SCT020 
     TEMPO 2609/2616 10018G28KT 
     TEMPO 2623/2706 BKN011 
     BECMG 2700/2702 10006KT 
     BECMG 2707/2709 09016KT
       
LFML 261300Z AUTO 13006KT 100V160 9999 FEW009 27/15 Q1016 TEMPO FEW100CB
TAF LFML 260800Z 2609/2715 VRB04KT CAVOK 
     PROB40 
     TEMPO 2609/2611 08015G30KT 
     BECMG 2611/2612 18015KT 
     PROB40 
     TEMPO 2612/2615 20012G22KT FEW100CB 
     BECMG 2618/2620 VRB03KT 
     BECMG 2700/2702 10010KT 
     BECMG 2707/2709 18010KT 
     TEMPO 2710/2712 VRB15KT 
     TEMPO 2712/2714 18015G30KT 
     PROB40 
     TEMPO 2710/2715 BKN110CB 
     BECMG 2714/2715 VRB03KT TX29/2611Z TN19/2701Z
       
LFMN 261300Z 10003KT 9999 FEW033 FEW050TCU SCT260 24/15 Q1018 NOSIG
TAF LFMN 260800Z 2609/2715 16010KT CAVOK 
     BECMG 2619/2621 34010KT 
     BECMG 2707/2709 09010KT
       
LFMO 261300Z AUTO VRB01KT CAVOK 27/17 Q1016 TEMPO 21015KT
TAF LFMO 260800Z 2609/2709 01005KT 9999 FEW080TCU BKN120 
     TEMPO 2609/2610 -SHRA 
     BECMG 2610/2612 NSC 
     TEMPO 2613/2619 21015KT
       
LFMP 261300Z AUTO 13018KT CAVOK 25/10 Q1015 BECMG 12012G22KT
TAF LFMP 260800Z 2609/2709 13008KT 9999 FEW008 SCT100 
     BECMG 2611/2613 12012G22KT CAVOK 
     BECMG 2620/2622 06005KT BKN008 
     TEMPO 2623/2708 3000 BR OVC005
       
LFMT 261300Z AUTO 14004KT 110V170 CAVOK 25/16 Q1016 NOSIG
TAF LFMT 260800Z 2609/2709 06006KT CAVOK 
     BECMG 2612/2614 15010KT 
     BECMG 2619/2621 02005KT
       
LFMU 261300Z AUTO 12009KT 090V160 CAVOK 25/12 Q1016 NOSIG
TAF LFMU 260800Z 2609/2709 02008KT CAVOK 
     BECMG 2609/2611 12010KT 
     BECMG 2621/2623 04005KT 
     BECMG 2707/2709 12015KT
       
LFMV 261300Z AUTO 20006KT 170V250 CAVOK 27/16 Q1016 NOSIG
TAF LFMV 260800Z 2609/2709 08010KT CAVOK 
     BECMG 2609/2611 VRB10KT 
     BECMG 2612/2614 20015KT 
     BECMG 2618/2620 VRB03KT 
     PROB30 
     TEMPO 2705/2707 27010G20KT
       
LFMY 261300Z AUTO 15006KT 100V200 CAVOK 28/17 Q1016 NOSIG
TAF LFMY 261136Z 2609/2709 22008KT 9999 NSC 
     BECMG 2618/2620 VRB03KT 
     BECMG 2706/2708 10015KT
       
LFOA 261300Z AUTO 11012KT 9999 // NCD 25/12 Q1014
TAF AMD LFOA 260936Z 2609/2709 11007KT CAVOK 
     TEMPO 2609/2610 4000 SHRA BKN045TCU 
     PROB40 
     TEMPO 2612/2621 4000 SHRA BKN050TCU 
     PROB30 
     TEMPO 2612/2621 11015G25KT 3000 TSRA BKN050CB 
     PROB30 
     TEMPO 2708/2709 3000 SHRA BKN050TCU
       
LFOB 261300Z AUTO 11009KT 9999 FEW016 BKN110 26/19 Q1015 NOSIG
TAF LFOB 261100Z 2612/2712 08010KT CAVOK 
     TEMPO 2615/2708 SHRA BKN040TCU 
     PROB30 
     TEMPO 2615/2708 VRB20G35KT 2000 TSRAGR BKN040CB
       
LFOC 261300Z AUTO 14014KT 8000 NSC 28/12 Q1014
LFOE 261300Z AUTO 12012KT 9999 FEW042 BKN170 BKN200 26/14 Q1014 TEMPO VRB15G25KT 3000 SHRA BKN030CB
TAF LFOE 260800Z 2609/2709 10010KT CAVOK 
     TEMPO 2613/2704 VRB15G25KT 3000 SHRA BKN030CB 
     PROB40 
     TEMPO 2618/2703 VRB20G30KT 2000 TSRA
       
LFOH 261300Z AUTO 09016KT 9999 BKN041 27/16 Q1013 NOSIG
TAF LFOH 261100Z 2612/2712 07007KT 6000 NSC 
     TEMPO 2615/2624 3000 SHRA BKN030CB 
     PROB30 2615/2624 VRB20G35KT 1200 TSRAGR BKN040CB
       
LFOJ 261300Z AUTO 12014KT CAVOK 28/13 Q1014
TAF LFOJ 252000Z 2521/2621 02008KT 8000 OVC007 
     TEMPO 2521/2601 -SHRA SCT030TCU 
     PROB40 
     TEMPO 2521/2524 4000 -TSRA BKN050CB 
     TEMPO 2602/2607 5000 BR BKN005
       
LFOK 261300Z AUTO 14011KT 9000 4000 NSC 28/18 Q1017 TEMPO 2000 TSRAGR BKN060CB
TAF LFOK 261100Z 2612/2712 12010KT CAVOK 
     TEMPO 2612/2712 SHRA BKN040TCU 
     PROB30 
     TEMPO 2612/2624 2000 TSRAGR BKN060CB
       
LFOP 261300Z AUTO 11016KT 9999 FEW039 27/18 Q1014 NOSIG
TAF AMD LFOP 261238Z 2612/2712 12015KT CAVOK 
     TEMPO 2615/2624 3000 SHRA BKN030CB 
     PROB30 
     TEMPO 2615/2624 VRB20G35KT 1200 TSRAGR BKN040CB
       
LFOT 261300Z AUTO 16013KT 100V200 6000 2300 VV/// 28/14 Q1012 TEMPO 4000 SHRA SCT050CB SCT100
TAF LFOT 261100Z 2612/2712 12007KT CAVOK 
     TEMPO 2614/2620 4000 SHRA SCT050CB SCT100 
     PROB40 
     TEMPO 2615/2618 20018G35KT 2000 -TSRAGR BKN040CB 
     BECMG 2700/2703 VRB03KT 
     BECMG 2709/2712 SCT030
       
LFOV 261300Z AUTO 14012KT 110V170 9999 FEW033 SCT041 24/16 Q1012
LFPB 261300Z AUTO 11013KT 080V140 9999 FEW039 SCT084 BKN150 27/15 Q1015 NOSIG
TAF LFPB 261100Z 2612/2712 12010KT CAVOK 
     TEMPO 2615/2618 FEW060CB 
     PROB30 
     TEMPO 2619/2621 VRB15G25KT 3000 TSRA SCT050CB 
     PROB30 
     TEMPO 2711/2712 FEW060CB
       
LFPG 261300Z 14014KT CAVOK 27/17 Q1016 NOSIG
TAF LFPG 261100Z 2612/2718 12010KT CAVOK 
     TEMPO 2615/2618 FEW060CB 
     PROB30 
     TEMPO 2619/2621 VRB15G25KT 3000 TSRA SCT050CB 
     PROB30 
     TEMPO 2712/2714 3000 TSRA SCT060CB 
     PROB40 
     TEMPO 2715/2718 2000 TSRA BKN030CB TX30/2615Z TN18/2704Z
       
LFPM 261300Z AUTO 12008KT CAVOK 26/15 Q1015
LFPN 261300Z AUTO 13011KT CAVOK 25/15 Q1015 TEMPO 12015G25KT SCT060TCU
LFPO 261300Z 13010KT CAVOK 27/15 Q1015 NOSIG
TAF LFPO 261100Z 2612/2718 10008KT CAVOK 
     TEMPO 2612/2624 12015G25KT -SHRA SCT060TCU 
     PROB40 
     TEMPO 2618/2621 20017G35KT 2500 -TSRA SCT009 BKN050CB 
     BECMG 2710/2712 SCT030TCU 
     TEMPO 2712/2718 15015G27KT SCT060TCU 
     PROB30 
     TEMPO 2711/2714 4000 -TSRA BKN040CB 
     PROB40 
     TEMPO 2714/2718 2500 -TSRAGR SCT009 BKN050CB
       
LFPT 261300Z AUTO 15009KT CAVOK 28/15 Q1015
LFPV 261300Z AUTO 14011KT CAVOK 26/12 Q1016 BECMG SHRA BKN030CB
TAF LFPV 260800Z 2609/2709 09005KT CAVOK 
     BECMG 2614/2615 5000 SHRA BKN030CB 
     PROB40 
     TEMPO 2617/2621 16015G30KT 2000 TSRA
       
LFQA 261300Z AUTO 14009KT 110V180 CAVOK 28/17 Q1017
LFQB 261300Z AUTO 10010KT 9999 ////// 26/17 Q1016
LFQG 261300Z AUTO 11012KT 070V150 CAVOK 26/15 Q1015
LFQQ 261300Z AUTO 08012KT 9000 NSC 28/16 Q1017 NOSIG
TAF LFQQ 261100Z 2612/2718 06007KT 6000 NSC 
     TEMPO 2615/2718 3000 SHRA BKN040TCU 
     PROB30 
     TEMPO 2617/2718 1200 TSRAGR BKN070CB
       
LFRB 261300Z AUTO 04012KT 3900 BR OVC009/// ///TCU 15/14 Q1014 TEMPO 8000 NSW BKN010CB
TAF AMD LFRB 261307Z 2613/2718 06008KT 8000 BKN010 
     TEMPO 2613/2624 3000 SHRA BKN010TCU 
     PROB30 
     TEMPO 2614/2618 4000 TSRA BKN010CB 
     BECMG 2622/2624 2000 BR BKN006 
     TEMPO 2700/2706 0400 FG VV/// 
     BECMG 2703/2705 16010KT 
     BECMG 2707/2710 9999 NSW SCT008 SCT020
       
LFRC 261300Z AUTO 08018KT 4900 BR NSC 18/14 Q1014 TEMPO SCT030TCU BECMG 9999 NSW
LFRD 261300Z AUTO 01006KT 320V060 5000 BR FEW017 BKN056 21/16 Q1012 TEMPO VRB15G38KT TSRA BKN020CB
TAF LFRD 261100Z 2612/2712 02010KT 2000 BR BKN005 
     BECMG 2612/2614 VRB05KT 9999 NSW BKN020 
     TEMPO 2612/2621 SHRA SCT020TCU 
     PROB40 
     TEMPO 2615/2621 VRB15G38KT 4000 TSRA BKN020CB 
     BECMG 2618/2620 17010KT 
     BECMG 2623/2701 BKN010 
     BECMG 2707/2709 BKN020
       
LFRG 261300Z AUTO 14011KT 100V190 9000 SCT034 SCT041 26/18 Q1014 TEMPO SHRA SCT030TCU
LFRH 261300Z AUTO 04012KT 4600 BR FEW007/// OVC092/// ///CB 17/16 Q1012 TEMPO TSRA BKN010 BKN030CB
TAF LFRH 261100Z 2612/2712 03010KT 9999 BKN020 
     TEMPO 2612/2621 4000 SHRA BKN040CB 
     PROB40 
     TEMPO 2612/2618 VRB10G20KT 3000 TSRA BKN010 BKN030CB 
     BECMG 2620/2622 15010KT OVC010 
     TEMPO 2622/2706 4000 BR BKN005 
     TEMPO 2705/2712 5000 SHRA
       
LFRI 261300Z AUTO 17011KT 140V210 9999 FEW031 24/15 Q1012 TEMPO VRB15G30KT 3000 TSRA BKN025CB
TAF LFRI 261100Z 2612/2712 14006KT 9999 SCT020 BKN050 
     TEMPO 2612/2621 VRB15G30KT 3000 TSRA BKN025CB 
     PROB40 
     TEMPO 2614/2619 TSRAGR 
     TEMPO 2702/2709 3000 BR BKN003 
     PROB40 
     TEMPO 2703/2706 0600 FG VV///
       
LFRJ 261300Z AUTO 06008KT 020V080 1900 -RA BR OVC004/// ///CB 14/13 Q1014
LFRK 261300Z AUTO 03008KT 7000 FEW035 SCT041 BKN048 23/19 Q1013 TEMPO SHRA SCT030TCU
LFRL 261300Z AUTO 02008KT 4600 -RA BR FEW013/// BKN098/// OVC120/// ///TCU 16/14 Q1013
LFRM 261300Z AUTO 13008KT 090V180 CAVOK 26/15 Q1012 TEMPO VRB18G30KT 3000 TSRA BKN040CB
TAF LFRM 261100Z 2612/2712 12006KT CAVOK 
     TEMPO 2612/2624 VRB18G30KT 3000 TSRA BKN040CB 
     PROB40 
     TEMPO 2614/2620 TSRAGR 
     TEMPO 2700/2709 4000 -SHRA SCT030CB
       
LFRN 261300Z AUTO 13010KT 090V160 9999 BKN026 OVC034 22/16 Q1012 TEMPO SHRA SCT020TCU
TAF LFRN 261100Z 2612/2712 05010KT 9999 BKN020 
     TEMPO 2612/2621 SHRA SCT020TCU 
     PROB40 
     TEMPO 2615/2621 VRB15G38KT 4000 TSRA BKN020CB 
     BECMG 2613/2615 15010KT 
     BECMG 2623/2701 BKN010 
     BECMG 2707/2709 BKN017
       
LFRO 261300Z AUTO 02008KT 360V080 1400 1300 R29/1800U BR VCTS OVC002/// ///CB 13/12 Q1014 TEMPO BKN010TCU BECMG 4000 BR
TAF AMD LFRO 261313Z 2613/2712 04006KT 2000 BR BKN003 
     TEMPO 2613/2622 SHRA BKN003 SCT010CB 
     BECMG 2622/2624 2000 BR BKN005 
     TEMPO 2700/2706 0400 FG VV/// 
     BECMG 2703/2706 14010KT 
     BECMG 2706/2708 8000 NSW BKN010 
     BECMG 2710/2712 BKN016
       
LFRQ 261300Z AUTO 03005KT 360V060 7000 RA FEW032/// BKN060/// BKN084/// ///TCU 17/15 Q1012 TEMPO 3000 TSRA BKN015CB
TAF LFRQ 261100Z 2612/2712 06008KT 9999 SCT020 
     TEMPO 2612/2622 SHRA BKN020TCU 
     PROB40 
     TEMPO 2612/2618 3000 TSRA BKN015CB 
     BECMG 2622/2624 3000 BR 
     BECMG 2700/2703 14010KT 
     TEMPO 2700/2705 0500 FG BKN001 
     BECMG 2706/2708 3000 BR BKN008
       
LFRS 261300Z AUTO VRB03KT 9999 BKN030 BKN037 BKN050 24/18 Q1011 TEMPO VRB15G30KT 3000 TSRA BKN025CB
TAF LFRS 261100Z 2612/2718 05006KT 9999 SCT020 BKN050 
     TEMPO 2612/2621 VRB15G30KT 3000 TSRA BKN025CB 
     PROB40 
     TEMPO 2614/2618 TSRAGR 
     TEMPO 2700/2710 3000 BR BKN003 
     PROB30 
     TEMPO 2703/2706 0600 FG VV///
       
LFRT 261300Z AUTO 07006KT 040V100 0800 0750 FG OVC002 14/13 Q1014
LFRU 261300Z AUTO 05006KT 350V090 1600 TSRA BR OVC004/// ///CB 14/13 Q1014
LFRV 261300Z AUTO 02007KT 4600 BR BKN003 BKN110 BKN140 16/16 Q1012
LFRZ 261300Z AUTO 05006KT 010V100 9999 FEW013 21/17 Q1012 TEMPO VRB15G25KT 3000 TSRA BKN008 BKN030CB
TAF LFRZ 261100Z 2612/2712 02008KT 9999 BKN018 
     TEMPO 2612/2616 VRB15G25KT 3000 TSRA BKN008 BKN030CB 
     BECMG 2616/2618 BKN008 BKN050 
     TEMPO 2700/2708 2000 BR BKN003 
     BECMG 2708/2710 20010KT SCT020
       
LFSB 261300Z 27007KT 9999 FEW063 FEW066TCU BKN260 27/14 Q1019 NOSIG
TAF LFSB 261100Z 2612/2712 01005KT CAVOK 
     PROB40 
     TEMPO 2612/2622 FEW060CB 
     PROB30 
     TEMPO 2613/2618 36010G20KT TS SCT060CB 
     TEMPO 2708/2712 FEW070CB
       
LFSD 261300Z AUTO 12006KT 090V150 CAVOK 26/15 Q1018
LFSG 261300Z AUTO 16006KT 120V190 CAVOK 25/16 Q1019
LFSI 261300Z AUTO 18011KT CAVOK 27/14 Q1017
TAF LFSI 260800Z 2609/2709 10010KT CAVOK
       
LFSL 261300Z AUTO 15010KT 100V210 CAVOK 26/11 Q1013 TEMPO 14015G25KT SCT060CB
LFSN 261300Z AUTO 14006KT CAVOK 28/17 Q1019
LFSO 261300Z AUTO 15005KT 100V180 CAVOK 26/14 Q1019
LFST 261300Z AUTO VRB03KT 9999 ///CB 28/16 Q1018 NOSIG
TAF LFST 261100Z 2612/2712 33004KT CAVOK 
     TEMPO 2612/2617 FEW050CB
       
LFSX 261300Z AUTO VRB03KT 9999 NCD 27/14 Q1019 TEMPO 3000 TSRA BKN020CB
TAF AMD LFSX 260830Z 2609/2709 11007KT CAVOK 
     PROB40 
     TEMPO 2609/2612 4000 SHRA SCT050TCU 
     PROB30 
     TEMPO 2609/2612 3000 TSRA BKN020CB 
     BECMG 2612/2614 08010KT 8000 SHRA SCT050TCU 
     TEMPO 2614/2621 VRB10G20KT 3000 TSRA BKN020CB 
     BECMG 2621/2622 CAVOK 
     BECMG 2701/2703 VRB07KT 
     TEMPO 2703/2709 4000 SHRA SCT040TCU 
     TEMPO 2703/2709 VRB10G20KT 3000 TSRA BKN030CB
       
LFTH 261300Z AUTO 11011KT 080V190 CAVOK 23/18 Q1017 NOSIG
TAF LFTH 260800Z 2609/2709 04013KT CAVOK 
     BECMG 2610/2612 10017G27KT 
     BECMG 2612/2614 12010KT 
     BECMG 2618/2620 VRB04KT 
     TEMPO 2700/2706 02006KT 
     BECMG 2706/2708 09015G25KT 
     PROB40 
     TEMPO 2707/2709 09025G40KT BKN110CB
       
LFTW 261300Z AUTO 18009KT CAVOK 26/17 Q1016 NOSIG
TAF LFTW 260800Z 2609/2709 06010KT 9999 FEW060TCU BKN110 
     BECMG 2610/2613 18012KT CAVOK 
     BECMG 2619/2621 02004KT
       
LFVP 261300Z 25006KT 220V290 7000 FEW004 SCT013 BKN120 07/07 Q1004 NOSIG
TAF AMD LFVP 261200Z 2612/2621 VRB05KT 1200 BR SCT004 SCT010 
     PROB30 
     TEMPO 2612/2615 0600 BCFG BKN002 
     TEMPO 2612/2617 9999 
     FM261700 05005KT 6000 FEW003 BKN040 
     TEMPO 2617/2621 2000 -RA BR SCT003 OVC038
       
LFYR 261300Z AUTO 13011KT CAVOK 28/14 Q1013
LFRG 261300Z AUTO 14011KT 100V190 9000 SCT034 SCT041 26/18 Q1014 TEMPO SHRA SCT030TCU
LFRN 261300Z AUTO 13010KT 090V160 9999 BKN026 OVC034 22/16 Q1012 TEMPO SHRA SCT020TCU
TAF LFRN 261100Z 2612/2712 05010KT 9999 BKN020 
     TEMPO 2612/2621 SHRA SCT020TCU 
     PROB40 
     TEMPO 2615/2621 VRB15G38KT 4000 TSRA BKN020CB 
     BECMG 2613/2615 15010KT 
     BECMG 2623/2701 BKN010 
     BECMG 2707/2709 BKN017
       
LFKF 261300Z AUTO 07012KT CAVOK 27/12 Q1018 NOSIG
TAF LFKF 260800Z 2609/2709 07012KT CAVOK 
     PROB30 
     TEMPO 2703/2706 BKN014
       
LFGJ 261300Z AUTO 05005KT CAVOK 23/18 Q1018 TEMPO 2000 TSRA SCT060CB
LFOB 261300Z AUTO 11009KT 9999 FEW016 BKN110 26/19 Q1015 NOSIG
TAF LFOB 261100Z 2612/2712 08010KT CAVOK 
     TEMPO 2615/2708 SHRA BKN040TCU 
     PROB30 
     TEMPO 2615/2708 VRB20G35KT 2000 TSRAGR BKN040CB
       
LFPN 261300Z AUTO 13011KT CAVOK 25/15 Q1015 TEMPO 12015G25KT SCT060TCU
LFOT 261300Z AUTO 16013KT 100V200 6000 2300 VV/// 28/14 Q1012 TEMPO 4000 SHRA SCT050CB SCT100
TAF LFOT 261100Z 2612/2712 12007KT CAVOK 
     TEMPO 2614/2620 4000 SHRA SCT050CB SCT100 
     PROB40 
     TEMPO 2615/2618 20018G35KT 2000 -TSRAGR BKN040CB 
     BECMG 2700/2703 VRB03KT 
     BECMG 2709/2712 SCT030
       
LFOP 261300Z AUTO 11016KT 9999 FEW039 27/18 Q1014 NOSIG
TAF AMD LFOP 261238Z 2612/2712 12015KT CAVOK 
     TEMPO 2615/2624 3000 SHRA BKN030CB 
     PROB30 
     TEMPO 2615/2624 VRB20G35KT 1200 TSRAGR BKN040CB
       
LFOK 261300Z AUTO 14011KT 9000 4000 NSC 28/18 Q1017 TEMPO 2000 TSRAGR BKN060CB
TAF LFOK 261100Z 2612/2712 12010KT CAVOK 
     TEMPO 2612/2712 SHRA BKN040TCU 
     PROB30 
     TEMPO 2612/2624 2000 TSRAGR BKN060CB
       
LFPV 261300Z AUTO 14011KT CAVOK 26/12 Q1016 BECMG SHRA BKN030CB
TAF LFPV 260800Z 2609/2709 09005KT CAVOK 
     BECMG 2614/2615 5000 SHRA BKN030CB 
     PROB40 
     TEMPO 2617/2621 16015G30KT 2000 TSRA
       
LFMU 261300Z AUTO 12009KT 090V160 CAVOK 25/12 Q1016 NOSIG
TAF LFMU 260800Z 2609/2709 02008KT CAVOK 
     BECMG 2609/2611 12010KT 
     BECMG 2621/2623 04005KT 
     BECMG 2707/2709 12015KT
       
LFPM 261300Z AUTO 12008KT CAVOK 26/15 Q1015